AirNav   Everest Fuels
 
 1506 users online  

KFLY Meadow Lake Airport
Colorado Springs, Colorado, USA

GOING TO COLORADO SPRINGS?


FAA INFORMATION EFFECTIVE 15 JULY 2021

Location

FAA Identifier: FLY
Lat/Long: 38-56-33.9320N 104-34-11.7440W
38-56.565533N 104-34.195733W
38.9427589,-104.5699289
(estimated)
Elevation: 6877.6 ft. / 2096.3 m (surveyed)
Variation: 11E (1985)
From city: 14 miles NE of COLORADO SPRINGS, CO
Time zone: UTC -6 (UTC -7 during Standard Time)
Zip code: 80831

Airport Operations

Airport use: Open to the public
Activation date: 11/1967
Control tower: no
ARTCC: DENVER CENTER
FSS: DENVER FLIGHT SERVICE STATION
NOTAMs facility: DEN (NOTAM-D service available)
Attendance: 0800-1700
Wind indicator: lighted
Segmented circle: yes
Lights: ACTVT PAPI RWY 15 & 33; MIRL RWY 15/33 - CTAF.
Beacon: white-green (lighted land airport)
Operates sunset to sunrise.

Airport Communications

CTAF/UNICOM: 122.7
WX AWOS-3PT: 118.450 (719-683-5371)
WX ASOS at COS (10 nm SW): PHONE 719-380-6748
WX ASOS at CO90 (17 nm SE): 125.0 (719-637-9696)
WX AWOS-3 at FCS (18 nm SW): 125.0 (719-637-9696)

Nearby radio navigation aids

VOR radial/distance  VOR name  Freq  Var
BRKr084/3.0BLACK FOREST VOR/DME112.5008E
FCSr017/18.0BUTTS VOR/DME108.8012E
PUBr342/39.5PUEBLO VORTAC116.7008E

 
NDB name  Hdg/Dist  Freq  Var  ID
IRONHORSE020/18.033508EIHS .. .... ...

Airport Services

Fuel available: 100LL
Parking: hangars and tiedowns
Airframe service: MAJOR
Powerplant service: MAJOR
Bottled oxygen: NONE
Bulk oxygen: LOW

Runway Information

Runway 15/33

Dimensions: 6000 x 60 ft. / 1829 x 18 m
Surface: asphalt, in excellent condition
Weight bearing capacity: 
Single wheel: 12.5
Runway edge lights: medium intensity
RUNWAY 15  RUNWAY 33
Latitude: 38-57.208218N38-56.277243N
Longitude: 104-34.476687W104-34.053582W
Elevation: 6873.6 ft.6787.2 ft.
Traffic pattern: leftright
Runway heading: 149 magnetic, 160 true329 magnetic, 340 true
Markings: nonprecision, in poor conditionnonprecision, in poor condition
Visual slope indicator: 2-light PAPI on left (3.50 degrees glide path)2-light PAPI on left (3.00 degrees glide path)
Touchdown point: yes, no lightsyes, no lights
Obstructions: 20 ft. road, 550 ft. from runway, 17:1 slope to clearnone

Runway 8/26

Dimensions: 2074 x 35 ft. / 632 x 11 m
RWY 08/26 1149 FT GRVL ON E END OF RWY, 925 FT ASPH ON W END OF RWY.
Surface: asphalt/gravel, in fair condition
RUNWAY 8  RUNWAY 26
Latitude: 38-56.756917N38-56.750298N
Longitude: 104-34.227943W104-33.790507W
Elevation: 6820.3 ft.6772.0 ft.
Traffic pattern: rightleft
Runway heading: 080 magnetic, 091 true260 magnetic, 271 true
Markings: none, in good conditionnone, in good condition
Touchdown point: yes, no lightsyes, no lights
Obstructions: 49 ft. pline, marked, 1460 ft. from runway, 25:1 slope to clear10 ft. road

Runway 15G/33G

Dimensions: 5000 x 200 ft. / 1524 x 61 m
Surface: turf, in fair condition
RUNWAY 15G  RUNWAY 33G
Latitude: 38-56.663012N38-55.886915N
Longitude: 104-34.366337W104-34.013515W
Elevation: 6833.4 ft.6776.6 ft.
Traffic pattern: leftleft
Runway heading: 149 magnetic, 160 true329 magnetic, 340 true
Markings: none, in good conditionnone
Touchdown point: yes, no lightsyes, no lights

Airport Ownership and Management from official FAA records

Ownership: Privately-owned
Owner: MEADOW LAKE AIRPORT ASSOC., INC.
13625 JUDGE ORR ROAD
PEYTON, CO 80831
Phone 719-339-0928
DAVE ELLIOTT ASSOCIATION PRESIDENT.
Manager: DAVE ELLIOTT
13625 JUDGE ORR ROAD
PEYTON, CO 80831
Phone 719-339-0928
ALTN PHONE IS MIKE BARR AT (719) 287-4204

Airport Operational Statistics

Aircraft based on the field: 384
Single engine airplanes: 331
Multi engine airplanes: 18
Jet airplanes: 1
Helicopters: 9
Gliders airplanes: 18
Ultralights: 7
    
Aircraft operations: avg 185/day *
51% local general aviation
30% military
19% transient general aviation
* for 12-month period ending 31 December 2018

Additional Remarks

BE ALERT; INTENSIVE USAF STUDENT TRAINING IN VICINITY OF COLORADO SPRINGS & PUEBLO COLORADO.
RWY 26 HAS PLUS-15 FT ROAD EXTENDING EAST FROM THLD.
PWRD PARAGLIDERS AND MOBILE AEROSTATS OPERATE SE SIDE OF ARPT SURF-500'
RWY 15G/33G HAS EDGES AND THLDS MKD WITH WHITE TIRES.
FOR CD CTC COLORADO SPRINGS APCH AT 719-556-9105.
RWY 08/26 EDGES MKD WITH WHITE REFLECTORS AND TIRES.
GLIDERS OPERATE ON 15G/33G AND WEST SIDE OF ARPT.
RY 26 HAS -4FT TERRAIN 5FT FROM RY EDGE FIRST 100FT ON BOTH SIDES OF RY.
WILDLIFE ON AND INVOF OF AIRPORT
RWY 26 PLUS-4 FT FENCE 50 FT RIGHT OF CNTRLN 95 FT FROM THLD.

Instrument Procedures

There are no published instrument procedures at KFLY.

Some nearby airports with instrument procedures:

KCOS - City of Colorado Springs Municipal Airport (10 nm SW)
KPUB - Pueblo Memorial Airport (39 nm S)
1V6 - Fremont County Airport (40 nm SW)
KAPA - Centennial Airport (40 nm N)
KBKF - Buckley Air Force Base (46 nm N)
 
Loc | Ops | Rwys | IFR | FBO | Links
Com | Nav | Svcs | Stats | Notes

AirBoss

 
Area around KFLY (Meadow Lake Airport)
 
Road maps at: MapQuest Bing Google
 
Aerial photo
WARNING: Photo may not be current or correct
Aerial photo of KFLY (Meadow Lake Airport)
Photo by Mitch Bowers
WWW.IMAGEWERX.US
Photo taken 16-May-2018
looking northwest.

Do you have a better or more recent aerial photo of Meadow Lake Airport that you would like to share? If so, please send us your photo.

 
Sectional chart

 
Airport distance calculator
Flying to Meadow Lake Airport? Find the distance to fly.

From to KFLY

Sunrise and sunset
Times for 05-Aug-2021
 Local
(UTC-6)
 Zulu
(UTC)
Morning civil twilight05:3411:34
Sunrise06:0412:04
Sunset20:0502:05
Evening civil twilight20:3402:34

Current date and time
Zulu (UTC)  05-Aug-2021 15:21:19
Local (UTC-6)  05-Aug-2021 09:21:19
 
METAR
KFLY 051455Z AUTO 34003KT 10SM CLR 22/06 A3038 RMK AO2 T02200055
KCOS 
10nm SW 
051454Z 35005KT 8SM CLR 23/09 A3033 RMK AO2 SLP185 HZ T02330094 51006
KAFF 
12nm W 
051458Z AUTO 03004KT 10SM CLR 22/09 A3033 RMK AO2 SLP182 T02160085 51005
KMNH 
17nm N 
051453Z AUTO 28003KT 10SM CLR 20/08 A3040 RMK AO2
KABH 
17nm SE 
051458Z AUTO 35005KT 10SM CLR 22/13 A3032 RMK AO2 SLP199 T02190127 51005
KFCS 
19nm SW 
051358Z AUTO 33007KT 10SM CLR 18/10 A3028 RMK AO2 SLP206 T01780097 $
TAF
KCOS 
10nm SW 
051125Z 0512/0612 36005KT P6SM SKC FM051900 15008KT 5SM HZ SKC FM052200 17010KT 5SM HZ FEW100 FM060600 VRB05KT P6SM SKC
KAFF 
12nm W 
041905Z 0419/0601 36012G18KT 9999 VCSH SCT050 BKN070 QNH3028INS TS OMTNS WND 320V040 TEMPO 0419/0421 36015G25KT 510009 BECMG 0421/0422 36012G22KT 9999 NSW SCT050 QNH3029INS BECMG 0501/0502 VRB06KT 9999 SCT040 QNH3030INS BECMG 0509/0510 35006KT 9999 SKC 520204 QNH3030INS BECMG 0515/0516 13006KT 9999 SKC QNH3032INS WND 090V170 BECMG 0519/0520 16012G18KT 9999 SKC QNH3025INS TX24/0421Z TN09/0511Z LAST NO AMDS AFT 0421 NEXT 0911
KFCS 
19nm SW 
050115Z 0421/0603 VRB06KT 9999 FEW040 SCT090 QNH3024INS BECMG 0422/0423 13009G15KT 9999 VCTS FEW040 SCT090CB QNH3025INS BECMG 0505/0506 VRB06KT 9999 NSW SKC QNH3029INS BECMG 0518/0519 14010G18KT 9999 SKC QNH3026INS TX23/0422Z TN15/0512Z
NOTAMs
Click for the latest NOTAMs
NOTAMs are issued by the DoD/FAA and will open in a separate window not controlled by AirNav.

 

 
 

FBO, Fuel Providers, and Aircraft Ground Support

  
 Business Name 
 
 Contact 
 
 Services / Description 
 
Fuel Prices
 
Comments
  
Phantom Fuel, LLC 719-683-2202
[email]
Aviation fuel

More info about Phantom Fuel, LLC
Phillips 66
100LL
SS $4.87 
 Updated 01-Aug-2021
 
   write
American Aviation 719-683-2547
no information available

If you are affiliated with American Aviation and would like to show here your services, contact info, web link, logo, and more, click here
100LL
SS $4.02 
 Updated 11-Dec-2020
 
   1 read write
SS=Self service
Update Fuel Prices
 

Would you like to see your business listed on this page?

 If your business provides an interesting product or service to pilots, flight crews, aircraft, or users of the Meadow Lake Airport, you should consider listing it here.  To start the listing process, click on the button below
 
Add a business
 

Other Pages about Meadow Lake Airport

www.KFLY.org
www.cosairports.com
 
Update a link
 
Copyright © AirNav, LLC. All rights reserved. Privacy Policy  Contact